createdAt,value
2023-02-15T00:01:56.292Z,102122.30
2023-02-15T00:17:01.010Z,102114.45
2023-02-15T00:32:04.459Z,102108.80
2023-02-15T00:47:07.618Z,102089.30
2023-02-15T01:02:11.025Z,102080.52
2023-02-15T01:17:14.659Z,102068.30
2023-02-15T01:32:17.866Z,102067.64
2023-02-15T02:02:35.686Z,102061.34
2023-02-15T02:17:44.900Z,102053.59
2023-02-15T02:33:21.528Z,102041.19
2023-02-15T02:48:29.509Z,102028.02
2023-02-15T03:03:37.821Z,102022.25
2023-02-15T03:18:53.954Z,102019.16
2023-02-15T03:34:05.927Z,102007.70
2023-02-15T03:49:15.804Z,102000.59
2023-02-15T04:04:23.976Z,102006.41
2023-02-15T04:19:47.332Z,102001.92
2023-02-15T04:34:50.557Z,101995.19
2023-02-15T04:49:53.736Z,101991.02
2023-02-15T05:04:56.989Z,101983.10
2023-02-15T05:20:00.197Z,101991.80
2023-02-15T05:35:03.778Z,101991.16
2023-02-15T05:50:07.474Z,101985.98
2023-02-15T06:05:10.692Z,101981.88
2023-02-15T06:20:14.562Z,101976.00
2023-02-15T06:35:17.740Z,101969.61
2023-02-15T06:50:21.209Z,101973.83
2023-02-15T07:05:25.468Z,101968.71
2023-02-15T07:20:29.894Z,101955.03
2023-02-15T07:35:34.654Z,101953.95
2023-02-15T07:50:37.864Z,101952.52
2023-02-15T08:05:42.548Z,101928.05
2023-02-15T08:20:51.342Z,101913.40
2023-02-15T08:35:54.542Z,101901.13
2023-02-15T08:50:57.808Z,101892.80
2023-02-15T09:06:02.286Z,101880.30
2023-02-15T09:21:09.281Z,101869.21
2023-02-15T09:36:23.484Z,101865.68
2023-02-15T09:51:47.268Z,101863.08
2023-02-15T10:06:58.088Z,101841.38
2023-02-15T10:22:20.155Z,101843.71
2023-02-15T10:38:08.614Z,101834.42
2023-02-15T10:53:11.683Z,101823.36
2023-02-15T11:08:15.461Z,101805.10
2023-02-15T11:23:19.805Z,101789.84
2023-02-15T11:38:27.471Z,101792.92
2023-02-15T11:53:34.952Z,101773.41
2023-02-15T12:08:42.378Z,101762.66
2023-02-15T12:23:53.530Z,101751.70
2023-02-15T12:39:21.964Z,101736.51
2023-02-15T12:54:40.228Z,101725.23
2023-02-15T13:09:43.531Z,101706.02
2023-02-15T13:25:30.151Z,101685.52
2023-02-15T13:40:59.917Z,101669.52
2023-02-15T13:56:41.494Z,101656.27
2023-02-15T14:11:56.598Z,101653.83
2023-02-15T14:27:25.563Z,101639.15
2023-02-15T14:42:45.004Z,101626.67
2023-02-15T14:57:59.906Z,101617.48
2023-02-15T15:13:32.070Z,101600.83
2023-02-15T15:28:35.621Z,101587.16
2023-02-15T15:43:57.245Z,101569.67
2023-02-15T15:59:09.104Z,101551.80
2023-02-15T16:14:31.122Z,101533.00
2023-02-15T16:29:35.542Z,101525.73
2023-02-15T16:44:41.686Z,101509.09
2023-02-15T16:59:51.691Z,101503.23
2023-02-15T17:14:56.405Z,101486.60
2023-02-15T17:30:05.275Z,101475.21
2023-02-15T17:45:11.411Z,101457.42
2023-02-15T18:00:34.974Z,101455.39
2023-02-15T18:15:39.320Z,101447.17
2023-02-15T18:30:43.884Z,101450.75
2023-02-15T18:45:49.256Z,101456.75
2023-02-15T19:00:53.444Z,101452.35
2023-02-15T19:15:57.851Z,101448.92
2023-02-15T19:31:01.542Z,101431.55
2023-02-15T19:46:06.847Z,101421.83
2023-02-15T20:01:14.031Z,101407.73
2023-02-15T20:16:18.191Z,101399.02
2023-02-15T20:31:26.349Z,101374.14
2023-02-15T20:46:30.350Z,101343.81
2023-02-15T21:01:34.397Z,101350.86
2023-02-15T21:16:38.272Z,101362.35
2023-02-15T21:31:42.218Z,101349.69
2023-02-15T21:47:04.427Z,101329.69
2023-02-15T22:02:25.847Z,101308.52
2023-02-15T22:17:29.487Z,101294.79
2023-02-15T22:32:35.609Z,101282.27
2023-02-15T22:47:53.593Z,101260.23
2023-02-15T23:02:57.051Z,101250.34
2023-02-15T23:18:18.748Z,101231.05
2023-02-15T23:33:24.762Z,101229.19
2023-02-15T23:48:34.517Z,101223.58
